Time;durP1;ratioP1;P1;durP2;ratioP2;P2;SDS_P1;SDS_P2;PMS_P1;PMS_P2;Temp;Humidity;BMP_temperature;BMP_pressure;BME280_temperature;BME280_humidity;BME280_pressure;Samples;Min_cycle;Max_cycle;Signal;HPM_P1;HPM_P2
2023/08/16 00:00:32;;;;;;;15.60;10.07;;;;;;;;;;6284225;28;20295;-70
2023/08/16 00:03:35;;;;;;;14.07;9.95;;;;;;;;;;6284940;28;20267;-71
2023/08/16 00:06:42;;;;;;;13.27;9.75;;;;;;;;;;6289313;28;20263;-69
2023/08/16 00:09:46;;;;;;;15.75;10.60;;;;;;;;;;6288982;28;20304;-70
2023/08/16 00:12:50;;;;;;;12.50;9.70;;;;;;;;;;6288147;28;20272;-70
2023/08/16 00:15:55;;;;;;;17.42;10.90;;;;;;;;;;6287196;28;20298;-70
2023/08/16 00:18:58;;;;;;;15.43;10.63;;;;;;;;;;6287394;28;20290;-71
2023/08/16 00:22:02;;;;;;;13.93;10.63;;;;;;;;;;6289803;28;20466;-70
2023/08/16 00:25:07;;;;;;;16.60;10.20;;;;;;;;;;6288641;28;20302;-71
2023/08/16 00:28:10;;;;;;;13.77;10.40;;;;;;;;;;6289149;28;20287;-69
2023/08/16 00:31:16;;;;;;;19.25;11.77;;;;;;;;;;6287907;28;20295;-71
2023/08/16 00:34:19;;;;;;;18.67;11.20;;;;;;;;;;6288900;28;20408;-70
2023/08/16 00:37:25;;;;;;;20.88;12.20;;;;;;;;;;6289169;28;20299;-70
2023/08/16 00:40:29;;;;;;;16.95;12.32;;;;;;;;;;6287261;28;20291;-71
2023/08/16 00:43:33;;;;;;;19.25;11.48;;;;;;;;;;6287112;28;20294;-70
2023/08/16 00:46:38;;;;;;;17.23;11.80;;;;;;;;;;6287255;28;20418;-70
2023/08/16 00:49:42;;;;;;;20.90;11.73;;;;;;;;;;6286575;28;20299;-70
2023/08/16 00:52:46;;;;;;;22.13;12.25;;;;;;;;;;6288820;28;20294;-70
2023/08/16 00:55:49;;;;;;;18.15;11.77;;;;;;;;;;6286831;28;20294;-69
2023/08/16 00:58:53;;;;;;;21.23;12.60;;;;;;;;;;6287725;28;20287;-69
2023/08/16 01:01:59;;;;;;;20.88;12.35;;;;;;;;;;6288950;28;20302;-69
2023/08/16 01:05:03;;;;;;;21.17;12.35;;;;;;;;;;6286532;28;20297;-70
2023/08/16 01:08:08;;;;;;;21.67;12.63;;;;;;;;;;6288424;28;20296;-69
2023/08/16 01:11:17;;;;;;;21.90;12.48;;;;;;;;;;6286415;28;20363;-71
2023/08/16 01:14:26;;;;;;;21.02;12.55;;;;;;;;;;6286889;28;20323;-70
2023/08/16 01:17:31;;;;;;;20.35;12.50;;;;;;;;;;6286824;28;20299;-70
2023/08/16 01:20:36;;;;;;;19.52;12.40;;;;;;;;;;6286233;28;20458;-69
2023/08/16 01:23:47;;;;;;;18.80;12.38;;;;;;;;;;6287017;28;20295;-70
2023/08/16 01:26:53;;;;;;;19.25;12.98;;;;;;;;;;6320066;28;20540;-70
2023/08/16 01:29:58;;;;;;;19.35;12.65;;;;;;;;;;6287072;28;20291;-70
2023/08/16 01:33:08;;;;;;;16.95;12.35;;;;;;;;;;6287012;28;20291;-69
2023/08/16 01:36:12;;;;;;;20.42;12.50;;;;;;;;;;6286549;28;20319;-69
2023/08/16 01:39:15;;;;;;;22.33;13.25;;;;;;;;;;6286684;28;20294;-70
2023/08/16 01:42:21;;;;;;;18.25;12.00;;;;;;;;;;6287104;28;20303;-70
2023/08/16 01:45:26;;;;;;;20.83;12.98;;;;;;;;;;6286447;28;20299;-69
2023/08/16 01:48:32;;;;;;;19.85;12.50;;;;;;;;;;6277080;28;20291;-72
2023/08/16 01:51:37;;;;;;;22.00;13.30;;;;;;;;;;6284481;28;20287;-71
2023/08/16 01:54:41;;;;;;;22.27;13.23;;;;;;;;;;6268389;28;20294;-69
2023/08/16 01:57:46;;;;;;;19.15;12.25;;;;;;;;;;6261439;28;20244;-69
2023/08/16 02:00:50;;;;;;;24.23;13.90;;;;;;;;;;6276989;28;20306;-69
2023/08/16 02:03:54;;;;;;;25.95;13.45;;;;;;;;;;6264173;28;20296;-69
2023/08/16 02:06:58;;;;;;;23.60;13.05;;;;;;;;;;6281429;28;20291;-70
2023/08/16 02:10:02;;;;;;;19.98;13.23;;;;;;;;;;6269109;28;20292;-70
2023/08/16 02:13:07;;;;;;;23.58;13.63;;;;;;;;;;6261436;28;20303;-70
2023/08/16 02:16:11;;;;;;;19.92;13.68;;;;;;;;;;6259982;28;20556;-69
2023/08/16 02:19:15;;;;;;;20.50;13.27;;;;;;;;;;6259818;28;20295;-68
2023/08/16 02:22:19;;;;;;;22.48;13.45;;;;;;;;;;6260835;28;20291;-69
2023/08/16 02:25:23;;;;;;;24.00;14.63;;;;;;;;;;6260702;28;20304;-69
2023/08/16 02:28:29;;;;;;;19.23;14.48;;;;;;;;;;6260999;28;20295;-69
2023/08/16 02:31:35;;;;;;;23.50;14.05;;;;;;;;;;6260316;28;20471;-69
2023/08/16 02:34:38;;;;;;;20.45;14.07;;;;;;;;;;6258877;28;20548;-69
2023/08/16 02:37:43;;;;;;;19.10;13.82;;;;;;;;;;6259953;28;20295;-69
2023/08/16 02:40:47;;;;;;;20.60;14.20;;;;;;;;;;6260229;28;20483;-69
2023/08/16 02:43:52;;;;;;;24.15;14.50;;;;;;;;;;6260087;28;20304;-69
2023/08/16 02:46:56;;;;;;;21.73;15.20;;;;;;;;;;6260560;28;20296;-69
2023/08/16 02:50:00;;;;;;;21.55;14.75;;;;;;;;;;6260541;28;20295;-70
2023/08/16 02:53:04;;;;;;;19.60;13.98;;;;;;;;;;6292373;28;20291;-70
2023/08/16 02:56:08;;;;;;;21.58;14.55;;;;;;;;;;6259808;28;20287;-70
2023/08/16 02:59:14;;;;;;;19.48;13.75;;;;;;;;;;6259934;28;20303;-69
2023/08/16 03:02:18;;;;;;;21.13;14.63;;;;;;;;;;6258163;28;20314;-70
2023/08/16 03:05:22;;;;;;;19.60;14.48;;;;;;;;;;6255519;28;20288;-69
2023/08/16 03:08:26;;;;;;;24.27;15.25;;;;;;;;;;6258994;28;20311;-69
2023/08/16 03:11:30;;;;;;;20.38;14.15;;;;;;;;;;6259642;28;20295;-69
2023/08/16 03:14:35;;;;;;;20.90;14.23;;;;;;;;;;6258740;28;20472;-69
2023/08/16 03:17:39;;;;;;;23.92;15.73;;;;;;;;;;6258762;28;20292;-69
2023/08/16 03:20:43;;;;;;;21.60;14.80;;;;;;;;;;6257804;28;20295;-69
2023/08/16 03:23:47;;;;;;;21.70;15.10;;;;;;;;;;6258410;28;20318;-69
2023/08/16 03:26:53;;;;;;;25.10;15.25;;;;;;;;;;6258627;28;20295;-69
2023/08/16 03:29:58;;;;;;;21.48;14.73;;;;;;;;;;6259248;28;20468;-68
2023/08/16 03:33:03;;;;;;;19.92;14.55;;;;;;;;;;6258247;28;20327;-69
2023/08/16 03:36:09;;;;;;;21.58;14.60;;;;;;;;;;6257908;28;20295;-73
2023/08/16 03:39:13;;;;;;;20.42;14.15;;;;;;;;;;6257882;28;20295;-69
2023/08/16 03:42:17;;;;;;;22.13;14.70;;;;;;;;;;6291485;28;20315;-69
2023/08/16 03:45:24;;;;;;;19.00;12.98;;;;;;;;;;6259312;28;20295;-69
2023/08/16 03:48:28;;;;;;;20.52;14.05;;;;;;;;;;6259089;28;20487;-69
2023/08/16 03:51:32;;;;;;;18.58;12.68;;;;;;;;;;6315832;28;20270;-69
2023/08/16 03:54:36;;;;;;;18.13;13.40;;;;;;;;;;6315780;28;20291;-70
2023/08/16 03:57:40;;;;;;;18.73;12.82;;;;;;;;;;6283253;28;20413;-69
2023/08/16 04:00:48;;;;;;;17.65;12.80;;;;;;;;;;6265261;28;20291;-69
2023/08/16 04:03:52;;;;;;;16.55;12.93;;;;;;;;;;6283455;28;20295;-69
2023/08/16 04:06:56;;;;;;;16.50;12.07;;;;;;;;;;6315977;28;20282;-69
2023/08/16 04:09:59;;;;;;;16.23;12.65;;;;;;;;;;6283563;28;20571;-69
2023/08/16 04:13:04;;;;;;;17.17;12.27;;;;;;;;;;6283564;28;20290;-69
2023/08/16 04:16:09;;;;;;;20.17;12.50;;;;;;;;;;6283308;28;20292;-69
2023/08/16 04:19:13;;;;;;;15.50;12.68;;;;;;;;;;6283490;28;20298;-69
2023/08/16 04:22:16;;;;;;;15.25;12.43;;;;;;;;;;6283914;28;20295;-70
2023/08/16 04:25:20;;;;;;;18.85;12.40;;;;;;;;;;6282566;28;20580;-70
2023/08/16 04:28:26;;;;;;;21.83;13.15;;;;;;;;;;6282833;28;20303;-70
2023/08/16 04:31:31;;;;;;;22.67;13.00;;;;;;;;;;6281768;28;20287;-70
2023/08/16 04:34:35;;;;;;;20.33;13.60;;;;;;;;;;6313709;28;20299;-72
2023/08/16 04:37:38;;;;;;;18.45;12.75;;;;;;;;;;6283966;28;20487;-70
2023/08/16 04:40:42;;;;;;;18.85;13.32;;;;;;;;;;6273455;28;20299;-69
2023/08/16 04:43:47;;;;;;;20.73;12.80;;;;;;;;;;6315543;28;20536;-69
2023/08/16 04:46:52;;;;;;;19.48;13.05;;;;;;;;;;6282523;28;20593;-69
2023/08/16 04:49:56;;;;;;;19.25;13.05;;;;;;;;;;6284180;28;20295;-69
2023/08/16 04:53:00;;;;;;;20.83;13.20;;;;;;;;;;6289072;28;20296;-69
2023/08/16 04:56:04;;;;;;;25.17;13.07;;;;;;;;;;6288076;28;20310;-71
2023/08/16 04:59:09;;;;;;;26.42;13.77;;;;;;;;;;6280284;28;20516;-69
2023/08/16 05:02:14;;;;;;;23.00;13.15;;;;;;;;;;6276279;28;20306;-69
2023/08/16 05:05:19;;;;;;;28.08;13.65;;;;;;;;;;6285731;28;20303;-69
2023/08/16 05:08:23;;;;;;;22.60;13.07;;;;;;;;;;6287925;28;20322;-69
2023/08/16 05:11:28;;;;;;;18.88;12.80;;;;;;;;;;6285861;28;20295;-68
2023/08/16 05:14:32;;;;;;;21.23;13.48;;;;;;;;;;6286007;28;20295;-69
2023/08/16 05:17:37;;;;;;;21.45;13.13;;;;;;;;;;6287931;28;20299;-71
2023/08/16 05:20:42;;;;;;;23.92;13.73;;;;;;;;;;6285920;28;20291;-68
2023/08/16 05:23:46;;;;;;;24.27;13.38;;;;;;;;;;6286821;28;20286;-69
2023/08/16 05:26:49;;;;;;;17.00;12.88;;;;;;;;;;6287321;28;20444;-69
2023/08/16 05:29:53;;;;;;;21.08;13.07;;;;;;;;;;6286788;28;20294;-69
2023/08/16 05:32:58;;;;;;;21.45;13.30;;;;;;;;;;6287190;28;20295;-70
2023/08/16 05:36:02;;;;;;;20.17;13.35;;;;;;;;;;6286743;28;20374;-70
2023/08/16 05:39:06;;;;;;;22.77;12.80;;;;;;;;;;6286646;28;20291;-70
2023/08/16 05:42:10;;;;;;;22.70;12.40;;;;;;;;;;6287070;28;20287;-70
2023/08/16 05:45:14;;;;;;;16.02;12.70;;;;;;;;;;6303668;28;20300;-69
2023/08/16 05:48:19;;;;;;;17.83;13.40;;;;;;;;;;6285168;28;20291;-69
2023/08/16 05:51:23;;;;;;;20.35;13.02;;;;;;;;;;6286471;28;20563;-69
2023/08/16 05:54:27;;;;;;;20.40;13.02;;;;;;;;;;6277901;28;20295;-70
2023/08/16 05:57:31;;;;;;;21.02;13.07;;;;;;;;;;6286714;28;20512;-70
2023/08/16 06:00:35;;;;;;;18.02;12.95;;;;;;;;;;6277591;28;20307;-70
2023/08/16 06:03:40;;;;;;;18.60;13.63;;;;;;;;;;6286228;28;20274;-70
2023/08/16 06:06:44;;;;;;;19.13;13.00;;;;;;;;;;6286303;28;20244;-70
2023/08/16 06:09:47;;;;;;;22.42;14.48;;;;;;;;;;6277005;28;20299;-70
2023/08/16 06:12:51;;;;;;;18.20;13.80;;;;;;;;;;6286444;28;20335;-70
2023/08/16 06:15:55;;;;;;;19.98;15.57;;;;;;;;;;6286039;28;20295;-69
2023/08/16 06:19:00;;;;;;;25.85;13.98;;;;;;;;;;6286113;28;20295;-69
2023/08/16 06:22:04;;;;;;;25.98;15.73;;;;;;;;;;6286272;28;20295;-71
2023/08/16 06:25:09;;;;;;;22.88;14.48;;;;;;;;;;6284588;28;20314;-69
2023/08/16 06:28:12;;;;;;;31.80;16.17;;;;;;;;;;6285825;28;20299;-70
2023/08/16 06:31:17;;;;;;;19.25;13.88;;;;;;;;;;6285658;28;20489;-70
2023/08/16 06:34:22;;;;;;;20.17;14.40;;;;;;;;;;6285093;28;20298;-69
2023/08/16 06:37:26;;;;;;;20.52;14.40;;;;;;;;;;6285859;28;20298;-68
2023/08/16 06:40:29;;;;;;;20.20;14.73;;;;;;;;;;6285034;28;20291;-68
2023/08/16 06:43:33;;;;;;;21.48;15.55;;;;;;;;;;6284200;28;20302;-70
2023/08/16 06:46:37;;;;;;;19.73;15.35;;;;;;;;;;6269897;28;20300;-69
2023/08/16 06:49:42;;;;;;;23.40;15.38;;;;;;;;;;6282993;28;20476;-69
2023/08/16 06:52:46;;;;;;;20.23;15.77;;;;;;;;;;6285600;28;20291;-69
2023/08/16 06:55:50;;;;;;;23.80;15.52;;;;;;;;;;6276253;28;20294;-70
2023/08/16 06:58:55;;;;;;;24.27;15.30;;;;;;;;;;6284997;28;20287;-69
2023/08/16 07:01:58;;;;;;;20.20;15.85;;;;;;;;;;6285656;28;20575;-70
2023/08/16 07:05:04;;;;;;;27.77;15.18;;;;;;;;;;6284788;28;20579;-69
2023/08/16 07:08:08;;;;;;;20.67;14.52;;;;;;;;;;6285049;28;20291;-70
2023/08/16 07:11:13;;;;;;;29.75;15.15;;;;;;;;;;6284490;28;20291;-69
2023/08/16 07:14:16;;;;;;;22.05;15.63;;;;;;;;;;6282611;28;20306;-70
2023/08/16 07:17:20;;;;;;;25.50;15.25;;;;;;;;;;6284989;28;20467;-70
2023/08/16 07:20:25;;;;;;;21.70;14.70;;;;;;;;;;6284535;28;20302;-69
2023/08/16 07:23:29;;;;;;;22.10;14.57;;;;;;;;;;6284591;28;20294;-68
2023/08/16 07:26:33;;;;;;;20.95;13.98;;;;;;;;;;6285039;28;20402;-69
2023/08/16 07:29:37;;;;;;;20.83;13.95;;;;;;;;;;6284364;28;20466;-69
2023/08/16 07:32:40;;;;;;;19.38;14.15;;;;;;;;;;6284587;28;20295;-69
2023/08/16 07:35:46;;;;;;;23.15;14.73;;;;;;;;;;6284014;28;20294;-68
2023/08/16 07:38:50;;;;;;;18.25;14.20;;;;;;;;;;6281239;28;20287;-69
2023/08/16 07:41:54;;;;;;;18.45;13.57;;;;;;;;;;6279869;28;20295;-69
2023/08/16 07:45:00;;;;;;;19.20;13.70;;;;;;;;;;6284566;28;20295;-70
2023/08/16 07:48:05;;;;;;;16.50;14.05;;;;;;;;;;6284100;28;20304;-68
2023/08/16 07:51:10;;;;;;;24.35;12.60;;;;;;;;;;6283792;28;20312;-71
2023/08/16 07:54:14;;;;;;;16.27;12.55;;;;;;;;;;6258961;28;20295;-70
2023/08/16 07:57:18;;;;;;;15.20;12.27;;;;;;;;;;6259514;28;20304;-68
2023/08/16 08:00:22;;;;;;;16.67;12.55;;;;;;;;;;6258974;28;20303;-68
2023/08/16 08:03:25;;;;;;;21.00;11.98;;;;;;;;;;6259446;28;20375;-69
2023/08/16 08:06:31;;;;;;;13.55;11.20;;;;;;;;;;6258995;28;20295;-68
2023/08/16 08:09:34;;;;;;;15.35;11.82;;;;;;;;;;6243418;28;20287;-69
2023/08/16 08:12:38;;;;;;;17.02;12.30;;;;;;;;;;6278962;28;20243;-68
2023/08/16 08:15:42;;;;;;;13.40;11.57;;;;;;;;;;6283926;28;20295;-68
2023/08/16 08:18:48;;;;;;;16.55;11.70;;;;;;;;;;6283834;28;20290;-69
2023/08/16 08:21:54;;;;;;;13.55;11.30;;;;;;;;;;6284515;28;20295;-69
2023/08/16 08:24:57;;;;;;;15.50;11.98;;;;;;;;;;6286016;28;20290;-70
2023/08/16 08:28:03;;;;;;;12.57;10.82;;;;;;;;;;6289208;28;20571;-69
2023/08/16 08:31:07;;;;;;;12.18;10.88;;;;;;;;;;6288761;28;20304;-69
2023/08/16 08:34:11;;;;;;;16.55;9.70;;;;;;;;;;6288428;28;20298;-70
2023/08/16 08:37:16;;;;;;;12.07;7.63;;;;;;;;;;6289227;28;20303;-69
2023/08/16 08:40:19;;;;;;;11.02;7.18;;;;;;;;;;6288617;28;20295;-71
2023/08/16 08:43:28;;;;;;;12.73;7.07;;;;;;;;;;6288703;28;20496;-68
2023/08/16 08:46:33;;;;;;;8.77;6.85;;;;;;;;;;6287827;28;20296;-69
2023/08/16 08:49:37;;;;;;;8.48;6.38;;;;;;;;;;6287214;28;20426;-69
2023/08/16 08:52:48;;;;;;;9.20;5.85;;;;;;;;;;6288668;28;20306;-69
2023/08/16 08:55:52;;;;;;;10.80;6.30;;;;;;;;;;6288533;28;20299;-70
2023/08/16 08:58:57;;;;;;;6.40;5.60;;;;;;;;;;6288262;28;20303;-69
2023/08/16 09:02:19;;;;;;;8.20;5.20;;;;;;;;;;6288869;28;20385;-69
2023/08/16 09:05:23;;;;;;;16.35;5.35;;;;;;;;;;6288278;28;20287;-69
2023/08/16 09:08:28;;;;;;;5.43;4.30;;;;;;;;;;6288149;28;20302;-69
2023/08/16 09:11:32;;;;;;;9.60;3.80;;;;;;;;;;6288477;28;20287;-68
2023/08/16 09:14:36;;;;;;;8.88;3.25;;;;;;;;;;6287576;28;20583;-68
2023/08/16 09:17:39;;;;;;;10.68;3.85;;;;;;;;;;6288006;28;20298;-69
2023/08/16 09:20:45;;;;;;;5.47;4.10;;;;;;;;;;6287729;28;20303;-69
2023/08/16 09:23:58;;;;;;;6.45;3.60;;;;;;;;;;6287519;28;20287;-69
2023/08/16 09:27:02;;;;;;;10.50;3.63;;;;;;;;;;6287664;28;20299;-68
2023/08/16 09:30:07;;;;;;;7.50;4.03;;;;;;;;;;6287003;28;20303;-72
2023/08/16 09:33:14;;;;;;;6.75;3.67;;;;;;;;;;6286414;28;20299;-69
2023/08/16 09:36:18;;;;;;;18.20;4.35;;;;;;;;;;6285889;28;20614;-69
2023/08/16 09:39:26;;;;;;;8.65;4.30;;;;;;;;;;6287224;28;20489;-69
2023/08/16 09:42:33;;;;;;;8.88;4.00;;;;;;;;;;6287452;28;20294;-70
2023/08/16 09:45:37;;;;;;;3.90;3.67;;;;;;;;;;6286095;28;20291;-69
2023/08/16 09:48:41;;;;;;;5.80;3.75;;;;;;;;;;6286781;28;20243;-70
2023/08/16 09:51:49;;;;;;;3.78;3.53;;;;;;;;;;6287191;28;20571;-68
2023/08/16 09:54:58;;;;;;;6.82;3.55;;;;;;;;;;6285251;28;20279;-68
2023/08/16 09:58:04;;;;;;;3.33;3.03;;;;;;;;;;6287164;28;20311;-70
2023/08/16 10:01:08;;;;;;;6.82;3.58;;;;;;;;;;6286898;28;20286;-69
2023/08/16 10:04:16;;;;;;;8.20;3.40;;;;;;;;;;6286493;28;20306;-69
2023/08/16 10:07:23;;;;;;;13.20;3.17;;;;;;;;;;6285591;28;20532;-71
2023/08/16 10:10:31;;;;;;;4.90;3.25;;;;;;;;;;6285679;28;20323;-70
2023/08/16 10:13:35;;;;;;;4.50;3.10;;;;;;;;;;6286043;28;20363;-70
2023/08/16 10:16:39;;;;;;;11.88;2.92;;;;;;;;;;6286805;28;20291;-70
2023/08/16 10:19:45;;;;;;;7.97;2.90;;;;;;;;;;6286195;28;20299;-71
2023/08/16 10:22:51;;;;;;;3.75;2.65;;;;;;;;;;6286292;28;20299;-70
2023/08/16 10:25:57;;;;;;;5.97;2.83;;;;;;;;;;6285873;28;20442;-70
2023/08/16 10:29:07;;;;;;;6.47;2.67;;;;;;;;;;6284907;28;20299;-70
2023/08/16 10:32:24;;;;;;;7.13;3.30;;;;;;;;;;6286728;28;20297;-70
2023/08/16 10:35:30;;;;;;;4.20;3.63;;;;;;;;;;6286686;28;20359;-70
2023/08/16 10:38:36;;;;;;;6.43;3.20;;;;;;;;;;6286159;28;20286;-70
2023/08/16 10:41:42;;;;;;;3.15;2.92;;;;;;;;;;6286402;28;20290;-68
2023/08/16 10:44:51;;;;;;;4.10;2.60;;;;;;;;;;6285624;28;20286;-70
2023/08/16 10:47:55;;;;;;;3.15;3.05;;;;;;;;;;6286152;28;20318;-70
2023/08/16 10:50:59;;;;;;;3.28;3.08;;;;;;;;;;6285478;28;20291;-69
2023/08/16 10:54:04;;;;;;;2.80;2.70;;;;;;;;;;6284854;28;20299;-70
2023/08/16 10:57:09;;;;;;;7.85;3.30;;;;;;;;;;6286343;28;20294;-69
2023/08/16 11:00:16;;;;;;;6.82;2.90;;;;;;;;;;6284615;28;20298;-70
2023/08/16 11:03:20;;;;;;;6.88;3.00;;;;;;;;;;6286289;28;20295;-70
2023/08/16 11:06:24;;;;;;;6.32;2.72;;;;;;;;;;6285483;28;20291;-70
2023/08/16 11:09:29;;;;;;;5.18;3.08;;;;;;;;;;6286035;28;20299;-70
2023/08/16 11:12:35;;;;;;;3.75;2.90;;;;;;;;;;6286896;28;20295;-70
2023/08/16 11:15:40;;;;;;;3.72;3.08;;;;;;;;;;6284969;28;20294;-70
2023/08/16 11:18:44;;;;;;;3.78;3.33;;;;;;;;;;6284697;28;20240;-72
2023/08/16 11:21:47;;;;;;;3.20;3.00;;;;;;;;;;6285674;28;20243;-70
2023/08/16 11:24:51;;;;;;;3.20;2.75;;;;;;;;;;6284986;28;20303;-70
2023/08/16 11:28:03;;;;;;;4.70;3.17;;;;;;;;;;6285251;28;20295;-69
2023/08/16 11:31:08;;;;;;;3.80;2.97;;;;;;;;;;6285145;28;20544;-69
2023/08/16 11:34:13;;;;;;;5.07;2.95;;;;;;;;;;6283970;28;20370;-68
2023/08/16 11:37:20;;;;;;;3.60;3.25;;;;;;;;;;6285100;28;20294;-69
2023/08/16 11:40:25;;;;;;;6.60;3.17;;;;;;;;;;6283458;28;20287;-69
2023/08/16 11:43:31;;;;;;;5.00;3.20;;;;;;;;;;6284937;28;20291;-69
2023/08/16 11:46:43;;;;;;;3.38;3.00;;;;;;;;;;6284772;28;20299;-71
2023/08/16 11:49:48;;;;;;;5.78;3.20;;;;;;;;;;6284317;28;20290;-68
2023/08/16 11:52:58;;;;;;;4.57;3.20;;;;;;;;;;6284527;28;20295;-70
2023/08/16 11:56:04;;;;;;;4.07;2.58;;;;;;;;;;6284429;28;20563;-70
2023/08/16 11:59:09;;;;;;;20.52;3.70;;;;;;;;;;6283593;28;20291;-70
2023/08/16 12:02:13;;;;;;;4.28;2.80;;;;;;;;;;6285258;28;20295;-69
2023/08/16 12:05:17;;;;;;;6.60;2.60;;;;;;;;;;6284392;28;20299;-71
2023/08/16 12:08:22;;;;;;;3.20;3.00;;;;;;;;;;6284424;28;20302;-70
2023/08/16 12:11:27;;;;;;;6.97;2.83;;;;;;;;;;6283669;28;20294;-69
2023/08/16 12:14:32;;;;;;;4.32;3.13;;;;;;;;;;6283846;28;20416;-70
2023/08/16 12:17:36;;;;;;;4.07;2.45;;;;;;;;;;6284770;28;20298;-70
2023/08/16 12:20:40;;;;;;;3.67;2.90;;;;;;;;;;6283666;28;20465;-70
2023/08/16 12:23:46;;;;;;;2.10;2.00;;;;;;;;;;6283435;28;20342;-70
2023/08/16 12:26:50;;;;;;;3.10;2.70;;;;;;;;;;6284103;28;20287;-69
2023/08/16 12:29:55;;;;;;;4.68;2.95;;;;;;;;;;6283988;28;20299;-70
2023/08/16 12:32:59;;;;;;;5.60;3.00;;;;;;;;;;6284024;28;20303;-70
2023/08/16 12:36:03;;;;;;;4.63;2.67;;;;;;;;;;6283309;28;20303;-70
2023/08/16 12:39:07;;;;;;;8.15;3.30;;;;;;;;;;6283628;28;20290;-70
2023/08/16 12:42:11;;;;;;;6.50;2.50;;;;;;;;;;6282796;28;20370;-71
2023/08/16 12:45:16;;;;;;;4.55;2.40;;;;;;;;;;6283922;28;20295;-70
2023/08/16 12:48:20;;;;;;;4.88;2.40;;;;;;;;;;6283361;28;20302;-70
2023/08/16 12:51:24;;;;;;;2.78;2.40;;;;;;;;;;6283764;28;20290;-70
2023/08/16 12:54:28;;;;;;;2.47;2.33;;;;;;;;;;6283246;28;20307;-70
2023/08/16 12:57:32;;;;;;;3.08;2.20;;;;;;;;;;6281811;28;20267;-71
2023/08/16 13:00:40;;;;;;;2.60;2.40;;;;;;;;;;6283550;28;20579;-70
2023/08/16 13:03:47;;;;;;;4.47;2.42;;;;;;;;;;6282643;28;20275;-71
2023/08/16 13:06:53;;;;;;;11.68;2.50;;;;;;;;;;6284159;28;20450;-70
2023/08/16 13:10:09;;;;;;;8.43;3.10;;;;;;;;;;6283784;28;20543;-70
2023/08/16 13:13:16;;;;;;;2.90;2.50;;;;;;;;;;6287468;28;20298;-70
2023/08/16 13:16:35;;;;;;;4.28;2.60;;;;;;;;;;6286198;28;20482;-70
2023/08/16 13:19:49;;;;;;;3.78;2.63;;;;;;;;;;6287405;28;20299;-71
2023/08/16 13:23:05;;;;;;;8.23;2.75;;;;;;;;;;6286675;28;20298;-71
2023/08/16 13:26:12;;;;;;;7.82;2.88;;;;;;;;;;6287940;28;20595;-69
2023/08/16 13:29:17;;;;;;;11.45;2.63;;;;;;;;;;6286780;28;20295;-70
2023/08/16 13:32:32;;;;;;;13.38;3.03;;;;;;;;;;6287995;28;20490;-70
2023/08/16 13:35:47;;;;;;;4.13;2.33;;;;;;;;;;6287054;28;20492;-70
2023/08/16 13:38:53;;;;;;;4.18;2.42;;;;;;;;;;6287142;28;20287;-70
2023/08/16 13:42:11;;;;;;;2.42;2.22;;;;;;;;;;6287623;28;20299;-70
2023/08/16 13:45:18;;;;;;;5.10;2.38;;;;;;;;;;6287477;28;20486;-71
2023/08/16 13:48:24;;;;;;;2.72;2.63;;;;;;;;;;6287629;28;20294;-70
2023/08/16 13:51:28;;;;;;;3.25;2.42;;;;;;;;;;6286892;28;20291;-70
2023/08/16 13:54:32;;;;;;;2.35;2.25;;;;;;;;;;6286042;28;20300;-71
2023/08/16 13:57:37;;;;;;;2.50;2.35;;;;;;;;;;6286825;28;20248;-70
2023/08/16 14:00:41;;;;;;;5.68;2.38;;;;;;;;;;6286757;28;20295;-70
2023/08/16 14:03:46;;;;;;;4.63;2.33;;;;;;;;;;6286668;28;20248;-69
2023/08/16 14:06:50;;;;;;;5.40;2.38;;;;;;;;;;6286783;28;20239;-69
2023/08/16 14:09:54;;;;;;;13.30;2.40;;;;;;;;;;6286713;28;20346;-71
2023/08/16 14:12:59;;;;;;;2.00;1.90;;;;;;;;;;6286401;28;20457;-69
2023/08/16 14:16:05;;;;;;;2.38;2.28;;;;;;;;;;6286368;28;20352;-70
2023/08/16 14:19:10;;;;;;;2.33;2.15;;;;;;;;;;6285884;28;20295;-69
2023/08/16 14:22:14;;;;;;;4.97;2.33;;;;;;;;;;6286224;28;20290;-69
2023/08/16 14:25:18;;;;;;;12.45;2.42;;;;;;;;;;6286108;28;20294;-70
2023/08/16 14:28:24;;;;;;;2.35;2.15;;;;;;;;;;6286812;28;20287;-70
2023/08/16 14:31:28;;;;;;;4.88;2.13;;;;;;;;;;6286012;28;20294;-70
2023/08/16 14:34:33;;;;;;;1.90;1.85;;;;;;;;;;6285602;28;20307;-70
2023/08/16 14:37:37;;;;;;;8.30;2.10;;;;;;;;;;6284725;28;20298;-70
2023/08/16 14:40:42;;;;;;;2.80;1.83;;;;;;;;;;6285695;28;20494;-70
2023/08/16 14:43:46;;;;;;;3.25;1.92;;;;;;;;;;6285590;28;20290;-69
2023/08/16 14:46:50;;;;;;;10.98;2.00;;;;;;;;;;6286460;28;20306;-70
2023/08/16 14:49:55;;;;;;;3.15;1.92;;;;;;;;;;6285767;28;20299;-71
2023/08/16 14:52:59;;;;;;;3.17;1.77;;;;;;;;;;6285368;28;20371;-70
2023/08/16 14:56:03;;;;;;;2.55;1.70;;;;;;;;;;6285629;28;20319;-70
2023/08/16 14:59:07;;;;;;;2.08;1.40;;;;;;;;;;6285360;28;20314;-69
2023/08/16 15:02:13;;;;;;;7.10;1.90;;;;;;;;;;6285891;28;20295;-70
2023/08/16 15:05:18;;;;;;;1.45;1.33;;;;;;;;;;6285470;28;20291;-70
2023/08/16 15:08:22;;;;;;;1.45;1.45;;;;;;;;;;6285935;28;20298;-70
2023/08/16 15:11:26;;;;;;;7.15;1.40;;;;;;;;;;6285274;28;20295;-69
2023/08/16 15:14:30;;;;;;;3.30;1.50;;;;;;;;;;6285005;28;20307;-70
2023/08/16 15:17:33;;;;;;;1.40;1.40;;;;;;;;;;6285752;28;20294;-70
2023/08/16 15:20:38;;;;;;;3.03;1.70;;;;;;;;;;6282841;28;20770;-70
2023/08/16 15:23:43;;;;;;;1.65;1.55;;;;;;;;;;6284262;28;20537;-70
2023/08/16 15:26:47;;;;;;;1.45;1.35;;;;;;;;;;6284735;28;20287;-70
2023/08/16 15:29:51;;;;;;;3.22;1.42;;;;;;;;;;6284599;28;20299;-71
2023/08/16 15:32:54;;;;;;;1.65;1.23;;;;;;;;;;6284892;28;20291;-70
2023/08/16 15:36:00;;;;;;;2.17;1.40;;;;;;;;;;6283782;28;20299;-70
2023/08/16 15:39:04;;;;;;;1.08;0.95;;;;;;;;;;6284533;28;20370;-70
2023/08/16 15:42:08;;;;;;;0.90;0.90;;;;;;;;;;6284882;28;20287;-71
2023/08/16 15:45:12;;;;;;;1.02;1.02;;;;;;;;;;6283497;28;20290;-71
2023/08/16 15:48:16;;;;;;;1.05;1.00;;;;;;;;;;6285281;28;20367;-71
2023/08/16 15:51:21;;;;;;;1.65;1.15;;;;;;;;;;6283210;28;20307;-70
2023/08/16 15:54:25;;;;;;;4.18;1.20;;;;;;;;;;6284299;28;20394;-71
2023/08/16 15:57:29;;;;;;;1.85;1.20;;;;;;;;;;6284929;28;20302;-70
2023/08/16 16:00:33;;;;;;;1.17;1.10;;;;;;;;;;6283367;28;20475;-70
2023/08/16 16:03:36;;;;;;;2.60;1.00;;;;;;;;;;6284128;28;20228;-69
2023/08/16 16:06:42;;;;;;;1.25;0.80;;;;;;;;;;6285726;28;20244;-69
2023/08/16 16:09:46;;;;;;;2.42;0.98;;;;;;;;;;6284462;28;20307;-69
2023/08/16 16:12:49;;;;;;;1.25;1.05;;;;;;;;;;6284383;28;20391;-69
2023/08/16 16:15:53;;;;;;;1.08;0.77;;;;;;;;;;6284138;28;20299;-70
2023/08/16 16:18:57;;;;;;;2.40;0.88;;;;;;;;;;6283078;28;20290;-69
2023/08/16 16:22:02;;;;;;;1.15;0.88;;;;;;;;;;6284703;28;20311;-70
2023/08/16 16:25:07;;;;;;;1.75;1.10;;;;;;;;;;6283798;28;20471;-69
2023/08/16 16:28:11;;;;;;;1.15;1.15;;;;;;;;;;6284881;28;20571;-72
2023/08/16 16:31:15;;;;;;;2.60;1.08;;;;;;;;;;6283767;28;20286;-69
2023/08/16 16:34:18;;;;;;;7.35;1.38;;;;;;;;;;6283587;28;20403;-70
2023/08/16 16:37:24;;;;;;;3.75;1.00;;;;;;;;;;6283999;28;20574;-71
2023/08/16 16:40:28;;;;;;;1.98;1.70;;;;;;;;;;6283925;28;20310;-70
2023/08/16 16:43:32;;;;;;;5.95;1.58;;;;;;;;;;6283594;28;20315;-69
2023/08/16 16:46:35;;;;;;;7.55;1.45;;;;;;;;;;6287243;28;20398;-70
2023/08/16 16:49:39;;;;;;;1.70;1.33;;;;;;;;;;6288495;28;20295;-71
2023/08/16 16:52:44;;;;;;;8.02;1.27;;;;;;;;;;6289012;28;20298;-69
2023/08/16 16:55:48;;;;;;;4.70;1.48;;;;;;;;;;6288252;28;20303;-70
2023/08/16 16:58:52;;;;;;;7.82;1.10;;;;;;;;;;6287815;28;20286;-71
2023/08/16 17:01:56;;;;;;;7.00;1.80;;;;;;;;;;6286890;28;20417;-71
2023/08/16 17:05:00;;;;;;;2.80;1.40;;;;;;;;;;6288043;28;20587;-70
2023/08/16 17:08:06;;;;;;;3.63;1.25;;;;;;;;;;6288656;28;20487;-71
2023/08/16 17:11:09;;;;;;;5.38;1.23;;;;;;;;;;6287636;28;20571;-70
2023/08/16 17:14:13;;;;;;;2.25;1.10;;;;;;;;;;6287451;28;20291;-70
2023/08/16 17:17:17;;;;;;;2.83;1.27;;;;;;;;;;6288387;28;20599;-69
2023/08/16 17:20:21;;;;;;;1.23;1.20;;;;;;;;;;6319294;28;20294;-71
2023/08/16 17:23:26;;;;;;;1.30;1.27;;;;;;;;;;6288188;28;20291;-71
2023/08/16 17:26:30;;;;;;;2.38;1.30;;;;;;;;;;6286851;28;20575;-70
2023/08/16 17:29:34;;;;;;;1.30;1.00;;;;;;;;;;6287281;28;20577;-70
2023/08/16 17:32:39;;;;;;;1.25;1.10;;;;;;;;;;6287884;28;20591;-70
2023/08/16 17:35:44;;;;;;;1.40;1.30;;;;;;;;;;6287277;28;20298;-70
2023/08/16 17:38:50;;;;;;;1.25;1.15;;;;;;;;;;6287289;28;20302;-70
2023/08/16 17:41:54;;;;;;;4.45;1.40;;;;;;;;;;6288365;28;20287;-71
2023/08/16 17:44:58;;;;;;;2.80;1.50;;;;;;;;;;6287067;28;20295;-71
2023/08/16 17:48:02;;;;;;;1.55;1.10;;;;;;;;;;6289091;28;20291;-71
2023/08/16 17:51:06;;;;;;;2.92;1.42;;;;;;;;;;6289841;28;20295;-71
2023/08/16 17:54:12;;;;;;;6.25;1.50;;;;;;;;;;6290114;28;20298;-72
2023/08/16 17:57:16;;;;;;;4.53;1.50;;;;;;;;;;6286392;28;20294;-71
2023/08/16 18:00:20;;;;;;;2.70;1.13;;;;;;;;;;6286342;28;20295;-69
2023/08/16 18:03:24;;;;;;;1.58;1.10;;;;;;;;;;6286913;28;20298;-72
2023/08/16 18:06:27;;;;;;;3.45;1.45;;;;;;;;;;6286880;28;20300;-72
2023/08/16 18:09:35;;;;;;;10.32;1.75;;;;;;;;;;6284558;28;20294;-70
2023/08/16 18:12:39;;;;;;;5.47;1.48;;;;;;;;;;6287010;28;20540;-69